Terminal Aerodrome Forecast
Issued by NWS Cleveland, OH

Home | Current Version | Previous Version | Graphics & Text | Print | Product List | Glossary Off
Versions: 1 2 3 4 5 6 7 8 9 10 11 12 13 14 15 16 17 18

000
FTUS41 KCLE 171700
TAFYNG
TAF
KYNG 171720Z 1718/1818 33007KT 4SM BR OVC012
     FM172000 31008KT P6SM BKN015
     FM172200 31005KT P6SM SCT035
     FM180300 VRB03KT 4SM BR SKC
     FM180800 VRB03KT 1 1/2SM BR SKC
     FM181200 VRB03KT 3SM BR SKC
     FM181300 29004KT P6SM SKC=

USA.gov is the U.S. government's official web portal to all federal, state and local government web resources and services.